Home > Products > Valid Products > TAF

000
FTUS43 KDDC 312320
TAFGCK
TAF
KGCK 312320Z 0100/0124 10007KT P6SM SKC
     FM010900 16013KT P6SM SKC
     FM011600 18024G35KT P6SM SCT080=



000
FTUS43 KDDC 312320
TAFHYS
TAF
KHYS 312320Z 0100/0124 10007KT P6SM SKC
     FM010900 16013KT P6SM SKC
     FM011600 18021G30KT P6SM SCT080=



000
FTUS43 KDDC 312320
TAFDDC
TAF
KDDC 312320Z 0100/0124 10007KT P6SM SKC
     FM010900 16013KT P6SM SKC
     FM011600 18023G33KT P6SM SCT080=



000
FTUS43 KDDC 311736
TAFHYS
TAF
KHYS 311736Z 3118/0118 02010KT P6SM SKC
     FM312200 13009KT P6SM SKC
     FM011000 15013G18KT P6SM SKC
     FM011500 17022G30KT P6SM SKC=



000
FTUS43 KDDC 311736
TAFDDC
TAF
KDDC 311736Z 3118/0118 04009KT P6SM SKC
     FM312200 13008KT P6SM SKC
     FM010700 15013G18KT P6SM SKC
     FM011500 17022G30KT P6SM SKC=



000
FTUS43 KDDC 311736
TAFGCK
TAF
KGCK 311736Z 3118/0118 11008KT P6SM SKC
     FM010500 15013G18KT P6SM SKC
     FM011500 17022G30KT P6SM SKC=



000
FTUS43 KDDC 311535 AAA
TAFHYS
TAF AMD
KHYS 311535Z 3116/0112 05009KT P6SM BKN018
     FM311800 10012KT P6SM SKC=



000
FTUS43 KDDC 311535 AAB
TAFDDC
TAF AMD
KDDC 311535Z 3116/0112 01010KT P6SM BKN009
     FM311630 05009KT P6SM SCT015
     FM311800 10012KT P6SM SKC=



000
FTUS43 KDDC 311534 AAA
TAFGCK
TAF AMD
KGCK 311534Z 3116/0112 04010KT P6SM OVC009
     FM311600 05009KT P6SM SCT015
     FM311800 10012KT P6SM SKC=



000
FTUS43 KDDC 311231 AAA
TAFDDC
TAF AMD
KDDC 311231Z 3113/0112 01010KT P6SM BKN009
     FM311500 05009KT P6SM SCT015
     FM311800 10012KT P6SM SKC=



000
FTUS43 KDDC 311120
TAFHYS
TAF
KHYS 311120Z 3112/0112 36009KT P6SM OVC015
     FM311400 05009KT P6SM SCT015
     FM311800 10012KT P6SM SKC=



000
FTUS43 KDDC 311120
TAFDDC
TAF
KDDC 311120Z 3112/0112 02009KT P6SM FEW015
     FM311330 04012KT P6SM BKN015
     FM311600 05009KT P6SM SCT015
     FM311800 10012KT P6SM SKC=



000
FTUS43 KDDC 311120
TAFGCK
TAF
KGCK 311120Z 3112/0112 02006KT P6SM FEW015
     FM311330 04012KT P6SM BKN015
     FM311600 05009KT P6SM SCT015
     FM311800 10012KT P6SM SKC=



000
FTUS43 KDDC 310540
TAFDDC
TAF
KDDC 310540Z 3106/0106 36006KT P6SM SKC
     FM311000 02010KT 3SM BR SCT005
     FM311300 04012KT P6SM BKN009
     FM311600 05009KT P6SM SCT015
     FM311800 10012KT P6SM SKC=



000
FTUS43 KDDC 310540
TAFGCK
TAF
KGCK 310540Z 3106/0106 36006KT P6SM SKC
     FM311000 02010KT 3SM BR SCT005
     FM311300 04012KT P6SM BKN009
     FM311600 05009KT P6SM SCT015
     FM311800 10012KT P6SM SKC=



000
FTUS43 KDDC 310540
TAFHYS
TAF
KHYS 310540Z 3106/0106 36006KT P6SM SKC
     FM311100 03012KT P6SM BKN009
     FM311400 05009KT P6SM SCT015
     FM311800 10012KT P6SM SKC=



000
FTUS43 KDDC 302341
TAFHYS
TAF
KHYS 302341Z 3100/3124 36006KT P6SM SKC
     FM311100 03012KT P6SM BKN009
     FM311400 05009KT P6SM SCT015=



000
FTUS43 KDDC 302341
TAFDDC
TAF
KDDC 302341Z 3100/3124 36006KT P6SM SKC
     FM311000 02010KT 3SM BR SCT005
     FM311300 04012KT P6SM BKN009
     FM311600 05009KT P6SM SCT015=



000
FTUS43 KDDC 302341
TAFGCK
TAF
KGCK 302341Z 3100/3124 36006KT P6SM SKC
     FM311000 02010KT 3SM BR SCT005
     FM311300 04012KT P6SM BKN009
     FM311600 05009KT P6SM SCT015=



000
FTUS43 KDDC 302051 AAA
TAFGCK
TAF AMD
KGCK 302051Z 3021/3118 01014G24KT P6SM SKC
     FM310000 03009KT P6SM SKC
     FM311100 02011KT P6SM BKN012=



000
FTUS43 KDDC 302050 AAA
TAFDDC
TAF AMD
KDDC 302050Z 3021/3118 35014G22KT P6SM SKC
     FM310000 01008KT P6SM SKC
     FM311100 03010KT P6SM BKN012=



000
FTUS43 KDDC 301731
TAFDDC
TAF
KDDC 301731Z 3018/3118 35014KT P6SM SKC
     FM310000 01008KT P6SM SKC
     FM311100 03010KT P6SM BKN012=



000
FTUS43 KDDC 301731
TAFDDC
TAF
KDDC 301731Z 3018/3118 35014KT P6SM SKC
     FM310000 01008KT P6SM SKC
     FM311100 03010KT P6SM BKN012=



000
FTUS43 KDDC 301731
TAFGCK
TAF
KGCK 301731Z 3018/3118 01014KT P6SM SKC
     FM310000 03009KT P6SM SKC
     FM311100 02011KT P6SM BKN012=



000
FTUS43 KDDC 301731
TAFHYS
TAF
KHYS 301731Z 3018/3118 34014G20KT P6SM SKC
     FM310000 36010KT P6SM SKC
     FM310900 02010KT P6SM BKN015=



000
FTUS43 KDDC 301731
TAFHYS
TAF
KHYS 301731Z 3018/3118 34014G20KT P6SM SKC
     FM310000 36010KT P6SM SKC
     FM310900 02010KT P6SM BKN015=



000
FTUS43 KDDC 301731
TAFGCK
TAF
KGCK 301731Z 3018/3118 01014KT P6SM SKC
     FM310000 03009KT P6SM SKC
     FM311100 02011KT P6SM BKN012=



000
FTUS43 KDDC 301620 AAA
TAFGCK
TAF AMD
KGCK 301620Z 3016/3112 35012KT P6SM SKC
     FM310000 03009KT P6SM SKC=



000
FTUS43 KDDC 301619 AAA
TAFDDC
TAF AMD
KDDC 301619Z 3016/3112 35014KT P6SM SKC
     FM310000 01008KT P6SM SKC=



000
FTUS43 KDDC 301121
TAFDDC
TAF
KDDC 301121Z 3012/3112 33010KT P6SM SKC
     FM301600 35015G23KT P6SM SKC
     FM310000 01008KT P6SM SKC=



000
FTUS43 KDDC 301121
TAFHYS
TAF
KHYS 301121Z 3012/3112 31010KT P6SM SKC
     FM301600 34016G22KT P6SM SKC
     FM310000 36010KT P6SM SKC
     FM310900 01010KT P6SM SCT015=



000
FTUS43 KDDC 301121
TAFGCK
TAF
KGCK 301121Z 3012/3112 34010KT P6SM SKC
     FM301600 35015G22KT P6SM SKC
     FM310000 03009KT P6SM SKC=



000
FTUS43 KDDC 300543 RRA
TAFGCK
TAF
KGCK 300543Z 3006/3106 20009KT P6SM SKC
     FM301100 34011KT P6SM SKC
     FM301600 35015G22KT P6SM SKC
     FM310000 03009KT P6SM SKC=



000
FTUS43 KDDC 300543 RRA
TAFHYS
TAF
KHYS 300543Z 3006/3106 20009KT P6SM SKC
     FM301100 32010KT P6SM SKC
     FM301600 34016G22KT P6SM SKC
     FM310000 36010KT P6SM SKC=



000
FTUS43 KDDC 300543 RRA
TAFDDC
TAF
KDDC 300543Z 3006/3106 20009KT P6SM SKC
     FM301200 31012KT P6SM SKC
     FM301600 35016G22KT P6SM SKC
     FM310000 01008KT P6SM SKC=



000
FTUS43 KDDC 292320
TAFGCK
TAF
KGCK 292320Z 3000/3024 20009KT P6SM SKC
     FM300700 27007KT P6SM SKC
     FM301100 34011KT P6SM SKC
     FM301600 35015G22KT P6SM SKC=



000
FTUS43 KDDC 292320
TAFHYS
TAF
KHYS 292320Z 3000/3024 20009KT P6SM SKC
     FM300700 24006KT P6SM SKC
     FM301100 32010KT P6SM SKC
     FM301600 34016G22KT P6SM SKC=



000
FTUS43 KDDC 292320
TAFDDC
TAF
KDDC 292320Z 3000/3024 20009KT P6SM SKC
     FM300800 24009KT P6SM SKC
     FM301200 31012KT P6SM SKC
     FM301600 35016G22KT P6SM SKC=



000
FTUS43 KDDC 291942 AAA
TAFHYS
TAF AMD
KHYS 291942Z 2920/3018 21013G21KT P6SM SKC
     FM300000 17008KT P6SM SKC
     FM300500 24006KT P6SM FEW250
     FM300900 32010KT P6SM FEW250
     FM301600 34016G22KT P6SM SKC=



000
FTUS43 KDDC 291725
TAFHYS
TAF
KHYS 291725Z 2918/3018 17007KT P6SM SKC
     FM292000 19013G20KT P6SM SKC
     FM300000 17008KT P6SM SKC
     FM300500 24006KT P6SM FEW250
     FM300900 32010KT P6SM FEW250
     FM301600 34016G22KT P6SM SKC=



000
FTUS43 KDDC 291725
TAFGCK
TAF
KGCK 291725Z 2918/3018 23017KT P6SM SKC
     FM300000 18008KT P6SM SKC
     FM300600 27007KT P6SM FEW250
     FM301000 34011KT P6SM FEW250
     FM301600 35015G22KT P6SM SKC=



000
FTUS43 KDDC 291725
TAFDDC
TAF
KDDC 291725Z 2918/3018 23017G22KT P6SM SKC
     FM300000 19009KT P6SM SKC
     FM300700 24009KT P6SM FEW250
     FM301100 31012KT P6SM FEW250
     FM301600 35016G22KT P6SM SKC=



000
FTUS43 KDDC 291123
TAFGCK
TAF
KGCK 291123Z 2912/3012 21007KT P6SM SKC
     FM291800 20012G20KT P6SM SKC
     FM300000 17008KT P6SM SKC=



000
FTUS43 KDDC 291123
TAFDDC
TAF
KDDC 291123Z 2912/3012 21007KT P6SM SKC
     FM291800 20015G25KT P6SM SKC
     FM300000 18010KT P6SM SKC=



000
FTUS43 KDDC 291123
TAFHYS
TAF
KHYS 291123Z 2912/3012 21007KT P6SM SKC
     FM291800 20012G20KT P6SM SKC
     FM300000 19008KT P6SM SKC=



000
FTUS43 KDDC 290520
TAFHYS
TAF
KHYS 290520Z 2906/3006 VRB05KT P6SM SKC
     FM291800 20012G22KT P6SM SKC
     FM300000 19008KT P6SM SKC=



000
FTUS43 KDDC 290520
TAFGCK
TAF
KGCK 290520Z 2906/3006 22005KT P6SM SKC
     FM291800 20014G22KT P6SM SKC
     FM300000 17008KT P6SM SKC=



000
FTUS43 KDDC 290520
TAFDDC
TAF
KDDC 290520Z 2906/3006 22005KT P6SM SKC
     FM291800 20015G22KT P6SM SKC
     FM300000 18010KT P6SM SKC=



    US Dept of Commerce
    National Oceanic and Atmospheric Administration
    National Weather Service
    1325 East West Highway
    Silver Spring, MD 20910
    Page Author: NWS Internet Services Team
Disclaimer
Information Quality
Credits
Glossary
Privacy Policy
Freedom of Information Act (FOIA)
About Us
Career Opportunities